Lazbuddie, Texas
Current Conditions -  °F | °C
As of 6:55 AM on Wednesday 26 Nov 2014 (Local Time) from KCVN Reporting Station
Clear Clear  
Wind Chill: 28°   Ceiling: Unl
Heat Index: 37°   Visibility: 10mi
Dew Point: 18°   Wind: 16mph
Humidity: 45%   Direction: 10°N
Pressure: 30.18"   Gusts: NA
Location:  34.39°N, 102.61°W
Report Text: KCVN 261255Z 01014KT 10SM CLR 03/M08 A3018 RMK AO1 WSHFT 24
Loading
Personal Weather Stations






























Interactive Weather Map New forecast layout! Learn more

10-Day Weather Forecast

Advertisements
Track Severe Weather on mobile